sensor_id;sensor_type;location;lat;lon;timestamp;P1;durP1;ratioP1;P2;durP2;ratioP2
75429;SDS011;64009;51.488;5.462;2022-10-04T00:01:43;2.80;;;2.53;;
75429;SDS011;64009;51.488;5.462;2022-10-04T00:04:40;3.10;;;2.80;;
75429;SDS011;64009;51.488;5.462;2022-10-04T00:07:23;2.70;;;2.50;;
75429;SDS011;64009;51.488;5.462;2022-10-04T00:10:06;2.93;;;2.73;;
75429;SDS011;64009;51.488;5.462;2022-10-04T00:12:51;3.00;;;2.80;;
75429;SDS011;64009;51.488;5.462;2022-10-04T00:15:31;3.60;;;3.30;;
75429;SDS011;64009;51.488;5.462;2022-10-04T00:26:00;3.00;;;2.80;;
75429;SDS011;64009;51.488;5.462;2022-10-04T00:28:56;2.90;;;2.70;;
75429;SDS011;64009;51.488;5.462;2022-10-04T00:31:28;2.77;;;2.57;;
75429;SDS011;64009;51.488;5.462;2022-10-04T00:36:44;2.80;;;2.60;;
75429;SDS011;64009;51.488;5.462;2022-10-04T00:39:36;2.87;;;2.67;;
75429;SDS011;64009;51.488;5.462;2022-10-04T00:42:16;3.00;;;2.70;;
75429;SDS011;64009;51.488;5.462;2022-10-04T00:45:17;3.10;;;2.90;;
75429;SDS011;64009;51.488;5.462;2022-10-04T00:50:39;3.10;;;2.80;;
75429;SDS011;64009;51.488;5.462;2022-10-04T00:56:14;3.10;;;2.80;;
75429;SDS011;64009;51.488;5.462;2022-10-04T01:01:29;3.23;;;2.93;;
75429;SDS011;64009;51.488;5.462;2022-10-04T01:04:20;2.80;;;2.60;;
75429;SDS011;64009;51.488;5.462;2022-10-04T01:07:03;2.60;;;2.40;;
75429;SDS011;64009;51.488;5.462;2022-10-04T01:09:42;2.40;;;2.20;;
75429;SDS011;64009;51.488;5.462;2022-10-04T01:12:31;2.70;;;2.50;;
75429;SDS011;64009;51.488;5.462;2022-10-04T01:15:25;2.70;;;2.50;;
75429;SDS011;64009;51.488;5.462;2022-10-04T01:23:43;2.93;;;2.63;;
75429;SDS011;64009;51.488;5.462;2022-10-04T01:26:44;2.80;;;2.53;;
75429;SDS011;64009;51.488;5.462;2022-10-04T01:31:59;2.50;;;2.30;;
75429;SDS011;64009;51.488;5.462;2022-10-04T01:34:32;2.93;;;2.73;;
75429;SDS011;64009;51.488;5.462;2022-10-04T01:37:03;3.00;;;2.70;;
75429;SDS011;64009;51.488;5.462;2022-10-04T01:39:35;2.80;;;2.60;;
75429;SDS011;64009;51.488;5.462;2022-10-04T01:42:15;2.80;;;2.60;;
75429;SDS011;64009;51.488;5.462;2022-10-04T01:45:01;2.80;;;2.50;;
75429;SDS011;64009;51.488;5.462;2022-10-04T01:48:20;2.90;;;2.70;;
75429;SDS011;64009;51.488;5.462;2022-10-04T01:50:58;2.80;;;2.60;;
75429;SDS011;64009;51.488;5.462;2022-10-04T01:53:42;2.80;;;2.60;;
75429;SDS011;64009;51.488;5.462;2022-10-04T01:56:29;2.93;;;2.73;;
75429;SDS011;64009;51.488;5.462;2022-10-04T01:59:43;2.70;;;2.50;;
75429;SDS011;64009;51.488;5.462;2022-10-04T02:02:31;2.70;;;2.50;;
75429;SDS011;64009;51.488;5.462;2022-10-04T02:05:29;2.50;;;2.30;;
75429;SDS011;64009;51.488;5.462;2022-10-04T02:08:21;2.73;;;2.53;;
75429;SDS011;64009;51.488;5.462;2022-10-04T02:10:59;2.43;;;2.23;;
75429;SDS011;64009;51.488;5.462;2022-10-04T02:13:36;2.83;;;2.63;;
75429;SDS011;64009;51.488;5.462;2022-10-04T02:16:11;2.60;;;2.40;;
75429;SDS011;64009;51.488;5.462;2022-10-04T02:18:43;2.80;;;2.60;;
75429;SDS011;64009;51.488;5.462;2022-10-04T02:21:16;2.80;;;2.60;;
75429;SDS011;64009;51.488;5.462;2022-10-04T02:23:50;2.60;;;2.40;;
75429;SDS011;64009;51.488;5.462;2022-10-04T02:26:24;2.50;;;2.30;;
75429;SDS011;64009;51.488;5.462;2022-10-04T02:28:57;2.60;;;2.40;;
75429;SDS011;64009;51.488;5.462;2022-10-04T02:31:29;2.70;;;2.50;;
75429;SDS011;64009;51.488;5.462;2022-10-04T02:34:20;2.63;;;2.43;;
75429;SDS011;64009;51.488;5.462;2022-10-04T02:36:52;2.60;;;2.40;;
75429;SDS011;64009;51.488;5.462;2022-10-04T02:39:25;2.70;;;2.47;;
75429;SDS011;64009;51.488;5.462;2022-10-04T02:42:14;3.00;;;2.40;;
75429;SDS011;64009;51.488;5.462;2022-10-04T02:46:12;2.63;;;2.43;;
75429;SDS011;64009;51.488;5.462;2022-10-04T02:54:02;2.80;;;2.60;;
75429;SDS011;64009;51.488;5.462;2022-10-04T02:56:41;2.70;;;2.50;;
75429;SDS011;64009;51.488;5.462;2022-10-04T02:59:14;2.53;;;2.33;;
75429;SDS011;64009;51.488;5.462;2022-10-04T03:01:49;2.73;;;2.53;;
75429;SDS011;64009;51.488;5.462;2022-10-04T03:04:31;2.77;;;2.57;;
75429;SDS011;64009;51.488;5.462;2022-10-04T03:07:09;2.60;;;2.40;;
75429;SDS011;64009;51.488;5.462;2022-10-04T03:09:41;2.80;;;2.50;;
75429;SDS011;64009;51.488;5.462;2022-10-04T03:12:13;2.57;;;2.37;;
75429;SDS011;64009;51.488;5.462;2022-10-04T03:14:46;2.50;;;2.30;;
75429;SDS011;64009;51.488;5.462;2022-10-04T03:17:18;2.70;;;2.50;;
75429;SDS011;64009;51.488;5.462;2022-10-04T03:19:51;2.87;;;2.57;;
75429;SDS011;64009;51.488;5.462;2022-10-04T03:22:23;2.37;;;2.17;;
75429;SDS011;64009;51.488;5.462;2022-10-04T03:24:55;2.43;;;2.23;;
75429;SDS011;64009;51.488;5.462;2022-10-04T03:27:30;2.73;;;2.53;;
75429;SDS011;64009;51.488;5.462;2022-10-04T03:30:05;2.43;;;2.23;;
75429;SDS011;64009;51.488;5.462;2022-10-04T03:32:42;2.60;;;2.40;;
75429;SDS011;64009;51.488;5.462;2022-10-04T03:38:05;2.20;;;2.10;;
75429;SDS011;64009;51.488;5.462;2022-10-04T03:40:45;2.50;;;2.30;;
75429;SDS011;64009;51.488;5.462;2022-10-04T03:43:25;2.43;;;2.23;;
75429;SDS011;64009;51.488;5.462;2022-10-04T03:46:02;2.70;;;2.50;;
75429;SDS011;64009;51.488;5.462;2022-10-04T03:48:45;2.77;;;2.57;;
75429;SDS011;64009;51.488;5.462;2022-10-04T03:51:23;2.70;;;2.50;;
75429;SDS011;64009;51.488;5.462;2022-10-04T03:53:57;2.80;;;2.60;;
75429;SDS011;64009;51.488;5.462;2022-10-04T03:56:33;2.60;;;2.40;;
75429;SDS011;64009;51.488;5.462;2022-10-04T03:59:07;3.00;;;2.70;;
75429;SDS011;64009;51.488;5.462;2022-10-04T04:02:29;2.40;;;2.20;;
75429;SDS011;64009;51.488;5.462;2022-10-04T04:05:19;2.43;;;2.23;;
75429;SDS011;64009;51.488;5.462;2022-10-04T04:08:06;2.93;;;2.40;;
75429;SDS011;64009;51.488;5.462;2022-10-04T04:11:06;2.50;;;2.30;;
75429;SDS011;64009;51.488;5.462;2022-10-04T04:14:10;2.47;;;2.27;;
75429;SDS011;64009;51.488;5.462;2022-10-04T04:17:15;2.43;;;2.23;;
75429;SDS011;64009;51.488;5.462;2022-10-04T04:19:58;2.80;;;2.60;;
75429;SDS011;64009;51.488;5.462;2022-10-04T04:22:37;2.57;;;2.37;;
75429;SDS011;64009;51.488;5.462;2022-10-04T04:25:16;2.60;;;2.40;;
75429;SDS011;64009;51.488;5.462;2022-10-04T04:28:01;2.50;;;2.30;;
75429;SDS011;64009;51.488;5.462;2022-10-04T04:31:12;2.60;;;2.40;;
75429;SDS011;64009;51.488;5.462;2022-10-04T04:33:55;2.20;;;2.00;;
75429;SDS011;64009;51.488;5.462;2022-10-04T04:36:39;2.70;;;2.50;;
75429;SDS011;64009;51.488;5.462;2022-10-04T04:42:20;2.60;;;2.40;;
75429;SDS011;64009;51.488;5.462;2022-10-04T04:45:05;2.70;;;2.50;;
75429;SDS011;64009;51.488;5.462;2022-10-04T04:47:49;2.53;;;2.33;;
75429;SDS011;64009;51.488;5.462;2022-10-04T04:50:25;2.60;;;2.40;;
75429;SDS011;64009;51.488;5.462;2022-10-04T04:56:03;2.37;;;2.17;;
75429;SDS011;64009;51.488;5.462;2022-10-04T04:58:42;2.57;;;2.37;;
75429;SDS011;64009;51.488;5.462;2022-10-04T05:01:22;2.40;;;2.20;;
75429;SDS011;64009;51.488;5.462;2022-10-04T05:06:44;2.70;;;2.50;;
75429;SDS011;64009;51.488;5.462;2022-10-04T05:09:36;2.57;;;2.30;;
75429;SDS011;64009;51.488;5.462;2022-10-04T05:12:09;2.77;;;2.47;;
75429;SDS011;64009;51.488;5.462;2022-10-04T05:14:51;2.87;;;2.57;;
75429;SDS011;64009;51.488;5.462;2022-10-04T05:17:29;2.33;;;2.13;;
75429;SDS011;64009;51.488;5.462;2022-10-04T05:20:05;2.80;;;2.50;;
75429;SDS011;64009;51.488;5.462;2022-10-04T05:22:37;2.30;;;2.10;;
75429;SDS011;64009;51.488;5.462;2022-10-04T05:25:27;2.80;;;2.40;;
75429;SDS011;64009;51.488;5.462;2022-10-04T05:28:03;2.50;;;2.30;;
75429;SDS011;64009;51.488;5.462;2022-10-04T05:33:57;2.10;;;1.93;;
75429;SDS011;64009;51.488;5.462;2022-10-04T05:39:23;2.43;;;2.23;;
75429;SDS011;64009;51.488;5.462;2022-10-04T05:42:15;2.30;;;2.20;;
75429;SDS011;64009;51.488;5.462;2022-10-04T05:47:59;2.40;;;2.20;;
75429;SDS011;64009;51.488;5.462;2022-10-04T05:50:38;2.93;;;2.23;;
75429;SDS011;64009;51.488;5.462;2022-10-04T05:53:29;2.47;;;2.27;;
75429;SDS011;64009;51.488;5.462;2022-10-04T06:06:17;2.37;;;2.23;;
75429;SDS011;64009;51.488;5.462;2022-10-04T06:23:59;2.50;;;2.30;;
75429;SDS011;64009;51.488;5.462;2022-10-04T06:26:38;2.40;;;2.20;;
75429;SDS011;64009;51.488;5.462;2022-10-04T06:29:22;2.43;;;2.07;;
75429;SDS011;64009;51.488;5.462;2022-10-04T06:38:24;2.33;;;2.13;;
75429;SDS011;64009;51.488;5.462;2022-10-04T06:41:22;2.20;;;2.00;;
75429;SDS011;64009;51.488;5.462;2022-10-04T06:47:19;2.57;;;2.37;;
75429;SDS011;64009;51.488;5.462;2022-10-04T06:56:45;2.47;;;2.27;;
75429;SDS011;64009;51.488;5.462;2022-10-04T07:03:08;2.40;;;2.20;;
75429;SDS011;64009;51.488;5.462;2022-10-04T07:05:51;2.30;;;2.10;;
75429;SDS011;64009;51.488;5.462;2022-10-04T07:11:31;2.50;;;2.30;;
75429;SDS011;64009;51.488;5.462;2022-10-04T07:14:42;2.60;;;2.30;;
75429;SDS011;64009;51.488;5.462;2022-10-04T07:17:23;2.13;;;2.03;;
75429;SDS011;64009;51.488;5.462;2022-10-04T07:20:02;2.10;;;2.00;;
75429;SDS011;64009;51.488;5.462;2022-10-04T07:22:42;2.00;;;1.90;;
75429;SDS011;64009;51.488;5.462;2022-10-04T07:25:33;2.43;;;2.20;;
75429;SDS011;64009;51.488;5.462;2022-10-04T07:28:17;2.17;;;2.00;;
75429;SDS011;64009;51.488;5.462;2022-10-04T07:34:01;2.40;;;2.20;;
75429;SDS011;64009;51.488;5.462;2022-10-04T07:36:47;2.90;;;2.40;;
75429;SDS011;64009;51.488;5.462;2022-10-04T07:39:27;2.30;;;2.10;;
75429;SDS011;64009;51.488;5.462;2022-10-04T07:42:28;2.13;;;2.03;;
75429;SDS011;64009;51.488;5.462;2022-10-04T07:45:26;2.43;;;2.00;;
75429;SDS011;64009;51.488;5.462;2022-10-04T07:48:13;2.63;;;2.00;;
75429;SDS011;64009;51.488;5.462;2022-10-04T07:53:53;2.50;;;2.30;;
75429;SDS011;64009;51.488;5.462;2022-10-04T07:56:40;1.67;;;1.57;;
75429;SDS011;64009;51.488;5.462;2022-10-04T08:05:55;2.37;;;2.17;;
75429;SDS011;64009;51.488;5.462;2022-10-04T08:09:00;2.00;;;1.90;;
75429;SDS011;64009;51.488;5.462;2022-10-04T08:15:07;1.93;;;1.80;;
75429;SDS011;64009;51.488;5.462;2022-10-04T08:28:28;2.40;;;2.20;;
75429;SDS011;64009;51.488;5.462;2022-10-04T08:31:04;2.35;;;2.15;;
75429;SDS011;64009;51.488;5.462;2022-10-04T08:36:53;1.92;;;1.83;;
75429;SDS011;64009;51.488;5.462;2022-10-04T08:58:52;2.08;;;1.88;;
75429;SDS011;64009;51.488;5.462;2022-10-04T09:17:53;2.03;;;1.55;;
75429;SDS011;64009;51.488;5.462;2022-10-04T09:20:53;1.95;;;1.83;;
75429;SDS011;64009;51.488;5.462;2022-10-04T09:30:19;2.30;;;1.83;;
75429;SDS011;64009;51.488;5.462;2022-10-04T09:39:11;1.85;;;1.60;;
75429;SDS011;64009;51.488;5.462;2022-10-04T09:48:19;2.90;;;2.20;;
75429;SDS011;64009;51.488;5.462;2022-10-04T09:51:13;1.70;;;1.60;;
75429;SDS011;64009;51.488;5.462;2022-10-04T10:11:56;4.68;;;2.45;;
75429;SDS011;64009;51.488;5.462;2022-10-04T10:15:22;2.15;;;1.85;;
75429;SDS011;64009;51.488;5.462;2022-10-04T10:21:09;2.78;;;2.35;;
75429;SDS011;64009;51.488;5.462;2022-10-04T10:30:17;4.53;;;2.70;;
75429;SDS011;64009;51.488;5.462;2022-10-04T10:33:17;2.53;;;2.08;;
75429;SDS011;64009;51.488;5.462;2022-10-04T10:49:02;3.88;;;2.40;;
75429;SDS011;64009;51.488;5.462;2022-10-04T11:07:41;4.20;;;2.22;;
75429;SDS011;64009;51.488;5.462;2022-10-04T11:10:56;2.40;;;1.95;;
75429;SDS011;64009;51.488;5.462;2022-10-04T11:17:21;3.88;;;2.38;;
75429;SDS011;64009;51.488;5.462;2022-10-04T11:20:34;1.90;;;1.70;;
75429;SDS011;64009;51.488;5.462;2022-10-04T11:23:40;1.70;;;1.60;;
75429;SDS011;64009;51.488;5.462;2022-10-04T11:27:18;3.50;;;2.05;;
75429;SDS011;64009;51.488;5.462;2022-10-04T11:29:45;3.00;;;2.40;;
75429;SDS011;64009;51.488;5.462;2022-10-04T11:45:18;4.25;;;2.45;;
75429;SDS011;64009;51.488;5.462;2022-10-04T11:57:54;3.65;;;2.38;;
75429;SDS011;64009;51.488;5.462;2022-10-04T12:01:53;2.45;;;1.80;;
75429;SDS011;64009;51.488;5.462;2022-10-04T12:07:41;1.77;;;1.67;;
75429;SDS011;64009;51.488;5.462;2022-10-04T12:10:28;1.85;;;1.63;;
75429;SDS011;64009;51.488;5.462;2022-10-04T12:21:42;2.15;;;1.90;;
75429;SDS011;64009;51.488;5.462;2022-10-04T12:33:36;2.97;;;2.08;;
75429;SDS011;64009;51.488;5.462;2022-10-04T12:36:35;1.45;;;1.35;;
75429;SDS011;64009;51.488;5.462;2022-10-04T12:39:40;4.93;;;2.40;;
75429;SDS011;64009;51.488;5.462;2022-10-04T12:51:27;3.47;;;2.20;;
75429;SDS011;64009;51.488;5.462;2022-10-04T13:00:32;2.05;;;1.85;;
75429;SDS011;64009;51.488;5.462;2022-10-04T13:06:36;1.83;;;1.70;;
75429;SDS011;64009;51.488;5.462;2022-10-04T13:09:24;3.03;;;1.85;;
75429;SDS011;64009;51.488;5.462;2022-10-04T13:19:15;2.47;;;2.03;;
75429;SDS011;64009;51.488;5.462;2022-10-04T13:25:29;2.60;;;1.90;;
75429;SDS011;64009;51.488;5.462;2022-10-04T13:34:24;1.70;;;1.60;;
75429;SDS011;64009;51.488;5.462;2022-10-04T13:37:21;3.20;;;2.30;;
75429;SDS011;64009;51.488;5.462;2022-10-04T13:51:29;1.83;;;1.73;;
75429;SDS011;64009;51.488;5.462;2022-10-04T13:54:42;2.03;;;1.60;;
75429;SDS011;64009;51.488;5.462;2022-10-04T14:45:49;2.30;;;1.80;;
75429;SDS011;64009;51.488;5.462;2022-10-04T14:48:48;1.97;;;1.70;;
75429;SDS011;64009;51.488;5.462;2022-10-04T14:54:53;2.07;;;1.80;;
75429;SDS011;64009;51.488;5.462;2022-10-04T14:57:46;1.60;;;1.30;;
75429;SDS011;64009;51.488;5.462;2022-10-04T15:04:01;2.23;;;2.03;;
75429;SDS011;64009;51.488;5.462;2022-10-04T15:06:59;1.57;;;1.47;;
75429;SDS011;64009;51.488;5.462;2022-10-04T15:09:56;3.27;;;2.20;;
75429;SDS011;64009;51.488;5.462;2022-10-04T15:12:54;2.63;;;2.03;;
75429;SDS011;64009;51.488;5.462;2022-10-04T15:15:56;3.07;;;2.40;;
75429;SDS011;64009;51.488;5.462;2022-10-04T15:18:55;2.77;;;2.27;;
75429;SDS011;64009;51.488;5.462;2022-10-04T15:24:27;2.53;;;1.83;;
75429;SDS011;64009;51.488;5.462;2022-10-04T15:32:59;2.00;;;1.70;;
75429;SDS011;64009;51.488;5.462;2022-10-04T15:35:54;1.97;;;1.73;;
75429;SDS011;64009;51.488;5.462;2022-10-04T15:38:37;2.00;;;1.80;;
75429;SDS011;64009;51.488;5.462;2022-10-04T15:50:23;1.70;;;1.60;;
75429;SDS011;64009;51.488;5.462;2022-10-04T15:56:21;2.37;;;2.00;;
75429;SDS011;64009;51.488;5.462;2022-10-04T16:08:44;1.60;;;1.50;;
75429;SDS011;64009;51.488;5.462;2022-10-04T16:17:28;2.30;;;2.10;;
75429;SDS011;64009;51.488;5.462;2022-10-04T16:23:20;1.60;;;1.50;;
75429;SDS011;64009;51.488;5.462;2022-10-04T16:29:02;2.37;;;1.50;;
75429;SDS011;64009;51.488;5.462;2022-10-04T16:32:45;1.70;;;1.60;;
75429;SDS011;64009;51.488;5.462;2022-10-04T16:35:42;1.53;;;1.43;;
75429;SDS011;64009;51.488;5.462;2022-10-04T16:38:44;1.80;;;1.70;;
75429;SDS011;64009;51.488;5.462;2022-10-04T16:42:00;2.23;;;1.70;;
75429;SDS011;64009;51.488;5.462;2022-10-04T16:47:56;1.90;;;1.50;;
75429;SDS011;64009;51.488;5.462;2022-10-04T16:56:30;1.50;;;1.40;;
75429;SDS011;64009;51.488;5.462;2022-10-04T17:07:30;2.07;;;1.60;;
75429;SDS011;64009;51.488;5.462;2022-10-04T17:12:55;2.57;;;2.20;;
75429;SDS011;64009;51.488;5.462;2022-10-04T17:15:46;2.60;;;2.40;;
75429;SDS011;64009;51.488;5.462;2022-10-04T17:22:04;2.27;;;2.07;;
75429;SDS011;64009;51.488;5.462;2022-10-04T17:28:09;3.17;;;2.80;;
75429;SDS011;64009;51.488;5.462;2022-10-04T17:30:55;2.77;;;2.10;;
75429;SDS011;64009;51.488;5.462;2022-10-04T17:36:54;2.27;;;1.57;;
75429;SDS011;64009;51.488;5.462;2022-10-04T17:52:27;4.90;;;1.80;;
75429;SDS011;64009;51.488;5.462;2022-10-04T17:55:46;2.50;;;2.00;;
75429;SDS011;64009;51.488;5.462;2022-10-04T18:01:17;2.00;;;1.90;;
75429;SDS011;64009;51.488;5.462;2022-10-04T18:07:00;2.77;;;1.80;;
75429;SDS011;64009;51.488;5.462;2022-10-04T18:09:48;1.97;;;1.77;;
75429;SDS011;64009;51.488;5.462;2022-10-04T18:12:59;2.43;;;1.97;;
75429;SDS011;64009;51.488;5.462;2022-10-04T18:15:56;4.47;;;2.70;;
75429;SDS011;64009;51.488;5.462;2022-10-04T18:18:39;3.03;;;2.40;;
75429;SDS011;64009;51.488;5.462;2022-10-04T18:21:28;3.37;;;2.10;;
75429;SDS011;64009;51.488;5.462;2022-10-04T18:24:18;3.20;;;2.37;;
75429;SDS011;64009;51.488;5.462;2022-10-04T18:26:58;2.67;;;2.43;;
75429;SDS011;64009;51.488;5.462;2022-10-04T18:29:39;2.30;;;2.10;;
75429;SDS011;64009;51.488;5.462;2022-10-04T18:32:15;2.27;;;2.00;;
75429;SDS011;64009;51.488;5.462;2022-10-04T18:40:39;3.27;;;2.20;;
75429;SDS011;64009;51.488;5.462;2022-10-04T18:46:15;2.90;;;1.93;;
75429;SDS011;64009;51.488;5.462;2022-10-04T18:51:36;1.77;;;1.67;;
75429;SDS011;64009;51.488;5.462;2022-10-04T18:57:37;2.37;;;1.60;;
75429;SDS011;64009;51.488;5.462;2022-10-04T19:00:38;4.23;;;2.00;;
75429;SDS011;64009;51.488;5.462;2022-10-04T19:03:42;1.70;;;1.60;;
75429;SDS011;64009;51.488;5.462;2022-10-04T19:06:26;1.60;;;1.50;;
75429;SDS011;64009;51.488;5.462;2022-10-04T19:17:40;1.47;;;1.37;;
75429;SDS011;64009;51.488;5.462;2022-10-04T19:24:05;1.50;;;1.40;;
75429;SDS011;64009;51.488;5.462;2022-10-04T19:42:27;1.80;;;1.70;;
75429;SDS011;64009;51.488;5.462;2022-10-04T19:48:04;1.90;;;1.80;;
75429;SDS011;64009;51.488;5.462;2022-10-04T19:51:41;1.93;;;1.83;;
75429;SDS011;64009;51.488;5.462;2022-10-04T19:53:50;1.80;;;1.70;;
75429;SDS011;64009;51.488;5.462;2022-10-04T19:56:34;1.53;;;1.43;;
75429;SDS011;64009;51.488;5.462;2022-10-04T19:59:21;1.70;;;1.60;;
75429;SDS011;64009;51.488;5.462;2022-10-04T20:02:07;1.60;;;1.50;;
75429;SDS011;64009;51.488;5.462;2022-10-04T20:04:41;1.50;;;1.40;;
75429;SDS011;64009;51.488;5.462;2022-10-04T20:07:19;1.73;;;1.63;;
75429;SDS011;64009;51.488;5.462;2022-10-04T20:10:19;1.90;;;1.80;;
75429;SDS011;64009;51.488;5.462;2022-10-04T20:15:44;3.00;;;1.90;;
75429;SDS011;64009;51.488;5.462;2022-10-04T20:21:06;2.20;;;2.00;;
75429;SDS011;64009;51.488;5.462;2022-10-04T20:26:34;1.97;;;1.87;;
75429;SDS011;64009;51.488;5.462;2022-10-04T20:32:51;1.63;;;1.53;;
75429;SDS011;64009;51.488;5.462;2022-10-04T20:35:10;1.80;;;1.70;;
75429;SDS011;64009;51.488;5.462;2022-10-04T20:40:55;1.83;;;1.73;;
75429;SDS011;64009;51.488;5.462;2022-10-04T20:43:27;2.10;;;1.80;;
75429;SDS011;64009;51.488;5.462;2022-10-04T20:45:59;1.50;;;1.40;;
75429;SDS011;64009;51.488;5.462;2022-10-04T20:48:31;1.93;;;1.60;;
75429;SDS011;64009;51.488;5.462;2022-10-04T20:51:07;1.77;;;1.67;;
75429;SDS011;64009;51.488;5.462;2022-10-04T20:53:41;1.60;;;1.50;;
75429;SDS011;64009;51.488;5.462;2022-10-04T20:59:02;1.50;;;1.40;;
75429;SDS011;64009;51.488;5.462;2022-10-04T21:01:34;1.93;;;1.80;;
75429;SDS011;64009;51.488;5.462;2022-10-04T21:04:13;1.70;;;1.60;;
75429;SDS011;64009;51.488;5.462;2022-10-04T21:07:01;1.70;;;1.60;;
75429;SDS011;64009;51.488;5.462;2022-10-04T21:09:36;2.00;;;1.77;;
75429;SDS011;64009;51.488;5.462;2022-10-04T21:12:30;2.13;;;2.03;;
75429;SDS011;64009;51.488;5.462;2022-10-04T21:18:03;1.80;;;1.70;;
75429;SDS011;64009;51.488;5.462;2022-10-04T21:28:54;2.10;;;1.70;;
75429;SDS011;64009;51.488;5.462;2022-10-04T21:31:28;1.73;;;1.60;;
75429;SDS011;64009;51.488;5.462;2022-10-04T21:34:00;2.27;;;1.80;;
75429;SDS011;64009;51.488;5.462;2022-10-04T21:36:32;1.60;;;1.50;;
75429;SDS011;64009;51.488;5.462;2022-10-04T21:39:04;1.93;;;1.80;;
75429;SDS011;64009;51.488;5.462;2022-10-04T21:41:36;2.27;;;2.07;;
75429;SDS011;64009;51.488;5.462;2022-10-04T21:44:07;1.87;;;1.77;;
75429;SDS011;64009;51.488;5.462;2022-10-04T21:46:40;1.70;;;1.60;;
75429;SDS011;64009;51.488;5.462;2022-10-04T21:49:12;1.97;;;1.87;;
75429;SDS011;64009;51.488;5.462;2022-10-04T21:51:44;1.70;;;1.60;;
75429;SDS011;64009;51.488;5.462;2022-10-04T21:54:15;3.67;;;2.27;;
75429;SDS011;64009;51.488;5.462;2022-10-04T21:56:47;1.90;;;1.80;;
75429;SDS011;64009;51.488;5.462;2022-10-04T21:59:19;3.13;;;2.00;;
75429;SDS011;64009;51.488;5.462;2022-10-04T22:01:52;1.73;;;1.63;;
75429;SDS011;64009;51.488;5.462;2022-10-04T22:04:24;2.20;;;2.00;;
75429;SDS011;64009;51.488;5.462;2022-10-04T22:06:56;1.70;;;1.60;;
75429;SDS011;64009;51.488;5.462;2022-10-04T22:09:27;2.10;;;2.00;;
75429;SDS011;64009;51.488;5.462;2022-10-04T22:11:59;1.50;;;1.40;;
75429;SDS011;64009;51.488;5.462;2022-10-04T22:14:31;1.90;;;1.80;;
75429;SDS011;64009;51.488;5.462;2022-10-04T22:17:03;2.37;;;2.07;;
75429;SDS011;64009;51.488;5.462;2022-10-04T22:19:35;2.20;;;2.00;;
75429;SDS011;64009;51.488;5.462;2022-10-04T22:22:12;1.90;;;1.80;;
75429;SDS011;64009;51.488;5.462;2022-10-04T22:24:46;1.90;;;1.80;;
75429;SDS011;64009;51.488;5.462;2022-10-04T22:27:18;2.40;;;2.17;;
75429;SDS011;64009;51.488;5.462;2022-10-04T22:29:52;1.60;;;1.50;;
75429;SDS011;64009;51.488;5.462;2022-10-04T22:32:26;1.60;;;1.50;;
75429;SDS011;64009;51.488;5.462;2022-10-04T22:34:59;2.17;;;1.97;;
75429;SDS011;64009;51.488;5.462;2022-10-04T22:37:42;1.80;;;1.70;;
75429;SDS011;64009;51.488;5.462;2022-10-04T22:40:19;1.83;;;1.73;;
75429;SDS011;64009;51.488;5.462;2022-10-04T22:42:56;2.10;;;1.90;;
75429;SDS011;64009;51.488;5.462;2022-10-04T22:45:30;1.77;;;1.60;;
75429;SDS011;64009;51.488;5.462;2022-10-04T22:48:09;2.30;;;2.10;;
75429;SDS011;64009;51.488;5.462;2022-10-04T22:50:45;2.13;;;1.90;;
75429;SDS011;64009;51.488;5.462;2022-10-04T22:53:18;2.23;;;2.00;;
75429;SDS011;64009;51.488;5.462;2022-10-04T22:55:52;3.23;;;2.30;;
75429;SDS011;64009;51.488;5.462;2022-10-04T22:58:26;2.17;;;1.97;;
75429;SDS011;64009;51.488;5.462;2022-10-04T23:00:57;2.20;;;2.00;;
75429;SDS011;64009;51.488;5.462;2022-10-04T23:03:31;1.93;;;1.83;;
75429;SDS011;64009;51.488;5.462;2022-10-04T23:06:04;2.20;;;2.00;;
75429;SDS011;64009;51.488;5.462;2022-10-04T23:08:42;2.20;;;2.00;;
75429;SDS011;64009;51.488;5.462;2022-10-04T23:11:15;2.10;;;2.00;;
75429;SDS011;64009;51.488;5.462;2022-10-04T23:13:47;2.10;;;1.93;;
75429;SDS011;64009;51.488;5.462;2022-10-04T23:16:20;1.70;;;1.60;;
75429;SDS011;64009;51.488;5.462;2022-10-04T23:18:57;2.00;;;1.90;;
75429;SDS011;64009;51.488;5.462;2022-10-04T23:21:50;2.13;;;2.03;;
75429;SDS011;64009;51.488;5.462;2022-10-04T23:24:22;1.67;;;1.57;;
75429;SDS011;64009;51.488;5.462;2022-10-04T23:26:54;1.70;;;1.60;;
75429;SDS011;64009;51.488;5.462;2022-10-04T23:29:28;1.70;;;1.60;;
75429;SDS011;64009;51.488;5.462;2022-10-04T23:32:16;2.00;;;1.90;;
75429;SDS011;64009;51.488;5.462;2022-10-04T23:34:50;2.00;;;1.90;;
75429;SDS011;64009;51.488;5.462;2022-10-04T23:37:28;1.80;;;1.70;;
75429;SDS011;64009;51.488;5.462;2022-10-04T23:40:02;1.60;;;1.50;;
75429;SDS011;64009;51.488;5.462;2022-10-04T23:42:39;1.90;;;1.80;;
75429;SDS011;64009;51.488;5.462;2022-10-04T23:45:18;1.83;;;1.73;;
75429;SDS011;64009;51.488;5.462;2022-10-04T23:47:54;2.00;;;1.77;;
75429;SDS011;64009;51.488;5.462;2022-10-04T23:50:30;1.83;;;1.73;;
75429;SDS011;64009;51.488;5.462;2022-10-04T23:53:10;1.70;;;1.60;;
75429;SDS011;64009;51.488;5.462;2022-10-04T23:55:53;1.90;;;1.80;;
75429;SDS011;64009;51.488;5.462;2022-10-04T23:58:28;1.60;;;1.50;;
